sensor_id;sensor_type;location;lat;lon;timestamp;P1;durP1;ratioP1;P2;durP2;ratioP2
59907;SDS011;61804;54.926;73.496;2023-12-04T00:01:27;1.73;;;1.42;;
59907;SDS011;61804;54.926;73.496;2023-12-04T00:03:55;1.25;;;0.50;;
59907;SDS011;61804;54.926;73.496;2023-12-04T00:06:23;3.13;;;1.40;;
59907;SDS011;61804;54.926;73.496;2023-12-04T00:08:50;2.05;;;1.13;;
59907;SDS011;61804;54.926;73.496;2023-12-04T00:11:17;2.95;;;2.30;;
59907;SDS011;61804;54.926;73.496;2023-12-04T00:13:47;1.67;;;1.50;;
59907;SDS011;61804;54.926;73.496;2023-12-04T00:16:14;1.58;;;1.48;;
59907;SDS011;61804;54.926;73.496;2023-12-04T00:18:42;5.05;;;1.75;;
59907;SDS011;61804;54.926;73.496;2023-12-04T00:21:09;1.65;;;0.85;;
59907;SDS011;61804;54.926;73.496;2023-12-04T00:23:36;1.45;;;1.23;;
59907;SDS011;61804;54.926;73.496;2023-12-04T00:26:04;0.57;;;0.55;;
59907;SDS011;61804;54.926;73.496;2023-12-04T00:28:31;2.95;;;1.52;;
59907;SDS011;61804;54.926;73.496;2023-12-04T00:30:58;2.00;;;1.25;;
59907;SDS011;61804;54.926;73.496;2023-12-04T00:33:26;0.70;;;0.70;;
59907;SDS011;61804;54.926;73.496;2023-12-04T00:35:53;4.95;;;1.00;;
59907;SDS011;61804;54.926;73.496;2023-12-04T00:38:20;2.13;;;1.80;;
59907;SDS011;61804;54.926;73.496;2023-12-04T00:40:48;2.50;;;1.33;;
59907;SDS011;61804;54.926;73.496;2023-12-04T00:43:15;3.20;;;1.65;;
59907;SDS011;61804;54.926;73.496;2023-12-04T00:45:42;4.30;;;1.45;;
59907;SDS011;61804;54.926;73.496;2023-12-04T00:48:11;0.95;;;0.95;;
59907;SDS011;61804;54.926;73.496;2023-12-04T00:50:38;1.15;;;0.57;;
59907;SDS011;61804;54.926;73.496;2023-12-04T00:53:06;1.80;;;1.67;;
59907;SDS011;61804;54.926;73.496;2023-12-04T00:55:33;2.75;;;0.85;;
59907;SDS011;61804;54.926;73.496;2023-12-04T00:58:00;1.60;;;1.17;;
59907;SDS011;61804;54.926;73.496;2023-12-04T01:00:28;0.10;;;0.10;;
59907;SDS011;61804;54.926;73.496;2023-12-04T01:02:59;2.03;;;0.80;;
59907;SDS011;61804;54.926;73.496;2023-12-04T01:05:26;2.90;;;1.55;;
59907;SDS011;61804;54.926;73.496;2023-12-04T01:07:53;2.65;;;1.23;;
59907;SDS011;61804;54.926;73.496;2023-12-04T01:10:21;1.02;;;0.93;;
59907;SDS011;61804;54.926;73.496;2023-12-04T01:12:48;3.15;;;2.00;;
59907;SDS011;61804;54.926;73.496;2023-12-04T01:15:16;4.65;;;2.60;;
59907;SDS011;61804;54.926;73.496;2023-12-04T01:17:44;0.82;;;0.82;;
59907;SDS011;61804;54.926;73.496;2023-12-04T01:20:12;6.88;;;1.42;;
59907;SDS011;61804;54.926;73.496;2023-12-04T01:22:39;0.50;;;0.40;;
59907;SDS011;61804;54.926;73.496;2023-12-04T01:25:07;2.65;;;0.75;;
59907;SDS011;61804;54.926;73.496;2023-12-04T01:27:34;5.55;;;2.25;;
59907;SDS011;61804;54.926;73.496;2023-12-04T01:30:05;0.60;;;0.47;;
59907;SDS011;61804;54.926;73.496;2023-12-04T01:32:34;2.50;;;0.73;;
59907;SDS011;61804;54.926;73.496;2023-12-04T01:35:03;1.23;;;0.22;;
59907;SDS011;61804;54.926;73.496;2023-12-04T01:37:30;1.55;;;1.45;;
59907;SDS011;61804;54.926;73.496;2023-12-04T01:40:01;3.03;;;2.08;;
59907;SDS011;61804;54.926;73.496;2023-12-04T01:42:28;5.68;;;2.65;;
59907;SDS011;61804;54.926;73.496;2023-12-04T01:44:56;1.17;;;1.00;;
59907;SDS011;61804;54.926;73.496;2023-12-04T01:47:24;1.25;;;0.73;;
59907;SDS011;61804;54.926;73.496;2023-12-04T01:49:52;1.73;;;1.58;;
59907;SDS011;61804;54.926;73.496;2023-12-04T01:52:19;0.38;;;0.38;;
59907;SDS011;61804;54.926;73.496;2023-12-04T01:54:47;1.92;;;1.42;;
59907;SDS011;61804;54.926;73.496;2023-12-04T01:57:14;0.43;;;0.43;;
59907;SDS011;61804;54.926;73.496;2023-12-04T01:59:42;0.95;;;0.85;;
59907;SDS011;61804;54.926;73.496;2023-12-04T02:02:09;4.88;;;2.10;;
59907;SDS011;61804;54.926;73.496;2023-12-04T02:04:37;0.55;;;0.55;;
59907;SDS011;61804;54.926;73.496;2023-12-04T02:07:04;3.63;;;1.92;;
59907;SDS011;61804;54.926;73.496;2023-12-04T02:09:31;1.52;;;0.80;;
59907;SDS011;61804;54.926;73.496;2023-12-04T02:11:59;2.83;;;2.65;;
59907;SDS011;61804;54.926;73.496;2023-12-04T02:14:26;4.97;;;2.63;;
59907;SDS011;61804;54.926;73.496;2023-12-04T02:16:54;0.45;;;0.45;;
59907;SDS011;61804;54.926;73.496;2023-12-04T02:19:21;2.03;;;1.90;;
59907;SDS011;61804;54.926;73.496;2023-12-04T02:21:49;2.20;;;1.33;;
59907;SDS011;61804;54.926;73.496;2023-12-04T02:24:17;4.60;;;2.88;;
59907;SDS011;61804;54.926;73.496;2023-12-04T02:26:50;2.75;;;2.03;;
59907;SDS011;61804;54.926;73.496;2023-12-04T02:29:23;8.13;;;1.58;;
59907;SDS011;61804;54.926;73.496;2023-12-04T02:31:51;2.42;;;1.48;;
59907;SDS011;61804;54.926;73.496;2023-12-04T02:34:20;1.73;;;1.63;;
59907;SDS011;61804;54.926;73.496;2023-12-04T02:36:47;1.40;;;1.30;;
59907;SDS011;61804;54.926;73.496;2023-12-04T02:39:15;3.75;;;0.93;;
59907;SDS011;61804;54.926;73.496;2023-12-04T02:41:44;4.80;;;2.10;;
59907;SDS011;61804;54.926;73.496;2023-12-04T02:44:11;1.73;;;1.63;;
59907;SDS011;61804;54.926;73.496;2023-12-04T02:46:38;3.10;;;0.73;;
59907;SDS011;61804;54.926;73.496;2023-12-04T02:49:05;3.67;;;1.45;;
59907;SDS011;61804;54.926;73.496;2023-12-04T02:51:33;1.85;;;1.33;;
59907;SDS011;61804;54.926;73.496;2023-12-04T02:54:00;1.48;;;1.38;;
59907;SDS011;61804;54.926;73.496;2023-12-04T02:56:28;2.75;;;1.95;;
59907;SDS011;61804;54.926;73.496;2023-12-04T02:58:56;3.63;;;1.88;;
59907;SDS011;61804;54.926;73.496;2023-12-04T03:01:23;0.57;;;0.52;;
59907;SDS011;61804;54.926;73.496;2023-12-04T03:03:51;6.88;;;5.25;;
59907;SDS011;61804;54.926;73.496;2023-12-04T03:06:18;2.90;;;2.00;;
59907;SDS011;61804;54.926;73.496;2023-12-04T03:08:47;1.27;;;1.20;;
59907;SDS011;61804;54.926;73.496;2023-12-04T03:11:15;1.30;;;1.17;;
59907;SDS011;61804;54.926;73.496;2023-12-04T03:13:42;3.75;;;1.63;;
59907;SDS011;61804;54.926;73.496;2023-12-04T03:16:16;3.53;;;1.73;;
59907;SDS011;61804;54.926;73.496;2023-12-04T03:18:44;2.97;;;1.00;;
59907;SDS011;61804;54.926;73.496;2023-12-04T03:21:12;0.98;;;0.98;;
59907;SDS011;61804;54.926;73.496;2023-12-04T03:23:39;2.90;;;1.80;;
59907;SDS011;61804;54.926;73.496;2023-12-04T03:26:06;1.45;;;1.23;;
59907;SDS011;61804;54.926;73.496;2023-12-04T03:28:34;0.82;;;0.55;;
59907;SDS011;61804;54.926;73.496;2023-12-04T03:31:02;1.98;;;1.48;;
59907;SDS011;61804;54.926;73.496;2023-12-04T03:33:29;11.02;;;2.50;;
59907;SDS011;61804;54.926;73.496;2023-12-04T03:35:56;2.45;;;1.20;;
59907;SDS011;61804;54.926;73.496;2023-12-04T03:38:24;2.03;;;1.27;;
59907;SDS011;61804;54.926;73.496;2023-12-04T03:40:51;3.95;;;3.63;;
59907;SDS011;61804;54.926;73.496;2023-12-04T03:43:18;5.30;;;1.45;;
59907;SDS011;61804;54.926;73.496;2023-12-04T03:45:46;3.67;;;2.60;;
59907;SDS011;61804;54.926;73.496;2023-12-04T03:48:14;2.88;;;2.28;;
59907;SDS011;61804;54.926;73.496;2023-12-04T03:50:41;4.07;;;2.63;;
59907;SDS011;61804;54.926;73.496;2023-12-04T03:53:09;5.75;;;2.65;;
59907;SDS011;61804;54.926;73.496;2023-12-04T03:55:37;6.95;;;2.35;;
59907;SDS011;61804;54.926;73.496;2023-12-04T03:58:05;4.85;;;2.92;;
59907;SDS011;61804;54.926;73.496;2023-12-04T04:00:33;1.98;;;1.70;;
59907;SDS011;61804;54.926;73.496;2023-12-04T04:03:00;4.72;;;4.25;;
59907;SDS011;61804;54.926;73.496;2023-12-04T04:05:27;3.00;;;1.98;;
59907;SDS011;61804;54.926;73.496;2023-12-04T04:07:55;4.65;;;2.45;;
59907;SDS011;61804;54.926;73.496;2023-12-04T04:10:22;2.47;;;1.90;;
59907;SDS011;61804;54.926;73.496;2023-12-04T04:12:50;2.20;;;2.08;;
59907;SDS011;61804;54.926;73.496;2023-12-04T04:15:17;3.90;;;1.67;;
59907;SDS011;61804;54.926;73.496;2023-12-04T04:17:46;3.60;;;2.97;;
59907;SDS011;61804;54.926;73.496;2023-12-04T04:20:13;7.45;;;5.80;;
59907;SDS011;61804;54.926;73.496;2023-12-04T04:22:41;4.32;;;2.55;;
59907;SDS011;61804;54.926;73.496;2023-12-04T04:25:09;5.10;;;2.70;;
59907;SDS011;61804;54.926;73.496;2023-12-04T04:27:37;4.22;;;2.35;;
59907;SDS011;61804;54.926;73.496;2023-12-04T04:30:05;6.82;;;3.85;;
59907;SDS011;61804;54.926;73.496;2023-12-04T04:32:33;2.58;;;1.83;;
59907;SDS011;61804;54.926;73.496;2023-12-04T04:35:00;3.83;;;2.20;;
59907;SDS011;61804;54.926;73.496;2023-12-04T04:37:28;8.68;;;3.15;;
59907;SDS011;61804;54.926;73.496;2023-12-04T04:39:56;4.45;;;2.42;;
59907;SDS011;61804;54.926;73.496;2023-12-04T04:42:24;7.55;;;4.38;;
59907;SDS011;61804;54.926;73.496;2023-12-04T04:44:51;7.47;;;3.10;;
59907;SDS011;61804;54.926;73.496;2023-12-04T04:47:18;6.60;;;2.47;;
59907;SDS011;61804;54.926;73.496;2023-12-04T04:49:46;11.73;;;3.15;;
59907;SDS011;61804;54.926;73.496;2023-12-04T04:52:14;6.07;;;3.60;;
59907;SDS011;61804;54.926;73.496;2023-12-04T04:54:41;4.55;;;3.60;;
59907;SDS011;61804;54.926;73.496;2023-12-04T04:57:09;8.88;;;5.32;;
59907;SDS011;61804;54.926;73.496;2023-12-04T04:59:36;4.35;;;2.88;;
59907;SDS011;61804;54.926;73.496;2023-12-04T05:02:03;3.50;;;3.20;;
59907;SDS011;61804;54.926;73.496;2023-12-04T05:04:31;3.92;;;2.83;;
59907;SDS011;61804;54.926;73.496;2023-12-04T05:06:58;4.72;;;3.30;;
59907;SDS011;61804;54.926;73.496;2023-12-04T05:09:26;3.95;;;3.00;;
59907;SDS011;61804;54.926;73.496;2023-12-04T05:11:53;3.45;;;3.15;;
59907;SDS011;61804;54.926;73.496;2023-12-04T05:14:20;6.45;;;3.95;;
59907;SDS011;61804;54.926;73.496;2023-12-04T05:16:47;6.15;;;2.70;;
59907;SDS011;61804;54.926;73.496;2023-12-04T05:19:15;3.38;;;2.53;;
59907;SDS011;61804;54.926;73.496;2023-12-04T05:21:42;4.97;;;4.47;;
59907;SDS011;61804;54.926;73.496;2023-12-04T05:24:09;30.80;;;7.60;;
59907;SDS011;61804;54.926;73.496;2023-12-04T05:26:37;16.98;;;7.38;;
59907;SDS011;61804;54.926;73.496;2023-12-04T05:29:04;4.00;;;3.08;;
59907;SDS011;61804;54.926;73.496;2023-12-04T05:31:32;9.00;;;4.20;;
59907;SDS011;61804;54.926;73.496;2023-12-04T05:34:00;11.00;;;5.20;;
59907;SDS011;61804;54.926;73.496;2023-12-04T05:36:27;9.07;;;3.70;;
59907;SDS011;61804;54.926;73.496;2023-12-04T05:38:55;13.80;;;5.63;;
59907;SDS011;61804;54.926;73.496;2023-12-04T05:41:22;12.73;;;6.88;;
59907;SDS011;61804;54.926;73.496;2023-12-04T05:43:49;12.20;;;5.38;;
59907;SDS011;61804;54.926;73.496;2023-12-04T05:46:17;6.20;;;5.60;;
59907;SDS011;61804;54.926;73.496;2023-12-04T05:48:44;11.25;;;5.85;;
59907;SDS011;61804;54.926;73.496;2023-12-04T05:51:11;8.63;;;3.92;;
59907;SDS011;61804;54.926;73.496;2023-12-04T05:53:39;8.00;;;4.20;;
59907;SDS011;61804;54.926;73.496;2023-12-04T05:56:07;7.88;;;3.58;;
59907;SDS011;61804;54.926;73.496;2023-12-04T05:58:35;4.95;;;4.43;;
59907;SDS011;61804;54.926;73.496;2023-12-04T06:01:03;6.53;;;4.93;;
59907;SDS011;61804;54.926;73.496;2023-12-04T06:03:30;7.75;;;5.63;;
59907;SDS011;61804;54.926;73.496;2023-12-04T06:05:58;6.30;;;4.40;;
59907;SDS011;61804;54.926;73.496;2023-12-04T06:08:25;9.73;;;4.78;;
59907;SDS011;61804;54.926;73.496;2023-12-04T06:10:53;6.88;;;4.65;;
59907;SDS011;61804;54.926;73.496;2023-12-04T06:13:20;8.18;;;7.18;;
59907;SDS011;61804;54.926;73.496;2023-12-04T06:15:48;5.35;;;4.63;;
59907;SDS011;61804;54.926;73.496;2023-12-04T06:18:15;9.05;;;5.97;;
59907;SDS011;61804;54.926;73.496;2023-12-04T06:20:42;7.20;;;4.65;;
59907;SDS011;61804;54.926;73.496;2023-12-04T06:23:10;12.32;;;5.22;;
59907;SDS011;61804;54.926;73.496;2023-12-04T06:25:37;7.20;;;4.75;;
59907;SDS011;61804;54.926;73.496;2023-12-04T06:28:05;8.25;;;4.95;;
59907;SDS011;61804;54.926;73.496;2023-12-04T06:30:32;8.65;;;5.38;;
59907;SDS011;61804;54.926;73.496;2023-12-04T06:33:00;5.38;;;4.80;;
59907;SDS011;61804;54.926;73.496;2023-12-04T06:35:28;6.25;;;5.03;;
59907;SDS011;61804;54.926;73.496;2023-12-04T06:40:41;6.45;;;5.60;;
59907;SDS011;61804;54.926;73.496;2023-12-04T06:43:08;6.03;;;4.18;;
59907;SDS011;61804;54.926;73.496;2023-12-04T06:45:36;5.82;;;4.10;;
59907;SDS011;61804;54.926;73.496;2023-12-04T06:48:04;6.20;;;4.85;;
59907;SDS011;61804;54.926;73.496;2023-12-04T06:50:32;8.75;;;4.65;;
59907;SDS011;61804;54.926;73.496;2023-12-04T06:53:00;7.88;;;4.45;;
59907;SDS011;61804;54.926;73.496;2023-12-04T06:55:27;15.75;;;10.40;;
59907;SDS011;61804;54.926;73.496;2023-12-04T06:57:54;20.58;;;11.60;;
59907;SDS011;61804;54.926;73.496;2023-12-04T07:00:21;7.78;;;5.82;;
59907;SDS011;61804;54.926;73.496;2023-12-04T07:02:49;9.93;;;6.10;;
59907;SDS011;61804;54.926;73.496;2023-12-04T07:05:17;10.27;;;7.80;;
59907;SDS011;61804;54.926;73.496;2023-12-04T07:07:45;14.10;;;7.35;;
59907;SDS011;61804;54.926;73.496;2023-12-04T07:10:12;8.00;;;6.57;;
59907;SDS011;61804;54.926;73.496;2023-12-04T07:12:41;11.98;;;6.93;;
59907;SDS011;61804;54.926;73.496;2023-12-04T07:15:09;9.77;;;5.28;;
59907;SDS011;61804;54.926;73.496;2023-12-04T07:17:37;10.93;;;5.20;;
59907;SDS011;61804;54.926;73.496;2023-12-04T07:20:04;7.20;;;4.45;;
59907;SDS011;61804;54.926;73.496;2023-12-04T07:22:34;5.97;;;3.75;;
59907;SDS011;61804;54.926;73.496;2023-12-04T07:25:02;7.28;;;3.92;;
59907;SDS011;61804;54.926;73.496;2023-12-04T07:27:29;8.43;;;6.90;;
59907;SDS011;61804;54.926;73.496;2023-12-04T07:29:57;10.93;;;6.90;;
59907;SDS011;61804;54.926;73.496;2023-12-04T07:32:24;15.68;;;8.13;;
59907;SDS011;61804;54.926;73.496;2023-12-04T07:34:52;18.05;;;5.72;;
59907;SDS011;61804;54.926;73.496;2023-12-04T07:37:19;8.48;;;5.78;;
59907;SDS011;61804;54.926;73.496;2023-12-04T07:39:47;9.07;;;5.43;;
59907;SDS011;61804;54.926;73.496;2023-12-04T07:42:14;10.77;;;6.05;;
59907;SDS011;61804;54.926;73.496;2023-12-04T07:44:41;11.90;;;5.75;;
59907;SDS011;61804;54.926;73.496;2023-12-04T07:47:08;11.55;;;6.88;;
59907;SDS011;61804;54.926;73.496;2023-12-04T07:49:36;7.00;;;5.05;;
59907;SDS011;61804;54.926;73.496;2023-12-04T07:52:03;12.10;;;6.15;;
59907;SDS011;61804;54.926;73.496;2023-12-04T07:54:31;9.15;;;6.38;;
59907;SDS011;61804;54.926;73.496;2023-12-04T07:56:59;8.13;;;5.63;;
59907;SDS011;61804;54.926;73.496;2023-12-04T07:59:26;14.18;;;7.22;;
59907;SDS011;61804;54.926;73.496;2023-12-04T08:01:54;68.15;;;46.95;;
59907;SDS011;61804;54.926;73.496;2023-12-04T08:04:22;11.10;;;6.03;;
59907;SDS011;61804;54.926;73.496;2023-12-04T08:06:50;9.23;;;5.57;;
59907;SDS011;61804;54.926;73.496;2023-12-04T08:09:17;14.45;;;6.95;;
59907;SDS011;61804;54.926;73.496;2023-12-04T08:11:44;11.93;;;8.23;;
59907;SDS011;61804;54.926;73.496;2023-12-04T08:14:12;9.48;;;5.93;;
59907;SDS011;61804;54.926;73.496;2023-12-04T08:16:39;12.98;;;9.75;;
59907;SDS011;61804;54.926;73.496;2023-12-04T08:19:07;10.75;;;6.45;;
59907;SDS011;61804;54.926;73.496;2023-12-04T08:21:34;9.27;;;5.10;;
59907;SDS011;61804;54.926;73.496;2023-12-04T08:24:01;6.75;;;5.43;;
59907;SDS011;61804;54.926;73.496;2023-12-04T08:26:29;11.50;;;5.50;;
59907;SDS011;61804;54.926;73.496;2023-12-04T08:28:56;7.13;;;4.45;;
59907;SDS011;61804;54.926;73.496;2023-12-04T08:31:24;12.65;;;7.40;;
59907;SDS011;61804;54.926;73.496;2023-12-04T08:33:51;19.45;;;7.15;;
59907;SDS011;61804;54.926;73.496;2023-12-04T08:36:19;9.07;;;2.92;;
59907;SDS011;61804;54.926;73.496;2023-12-04T08:38:46;7.30;;;5.18;;
59907;SDS011;61804;54.926;73.496;2023-12-04T08:41:14;5.78;;;3.40;;
59907;SDS011;61804;54.926;73.496;2023-12-04T08:43:42;9.30;;;4.65;;
59907;SDS011;61804;54.926;73.496;2023-12-04T08:46:13;22.60;;;6.30;;
59907;SDS011;61804;54.926;73.496;2023-12-04T08:48:41;8.35;;;5.47;;
59907;SDS011;61804;54.926;73.496;2023-12-04T08:51:14;18.17;;;7.15;;
59907;SDS011;61804;54.926;73.496;2023-12-04T08:53:44;34.33;;;19.88;;
59907;SDS011;61804;54.926;73.496;2023-12-04T08:56:11;11.77;;;6.30;;
59907;SDS011;61804;54.926;73.496;2023-12-04T08:58:39;7.47;;;5.43;;
59907;SDS011;61804;54.926;73.496;2023-12-04T09:01:06;13.63;;;4.90;;
59907;SDS011;61804;54.926;73.496;2023-12-04T09:03:34;6.97;;;3.33;;
59907;SDS011;61804;54.926;73.496;2023-12-04T09:06:02;7.07;;;4.78;;
59907;SDS011;61804;54.926;73.496;2023-12-04T09:08:31;9.25;;;7.10;;
59907;SDS011;61804;54.926;73.496;2023-12-04T09:11:00;11.35;;;5.20;;
59907;SDS011;61804;54.926;73.496;2023-12-04T09:13:28;6.97;;;4.28;;
59907;SDS011;61804;54.926;73.496;2023-12-04T09:15:57;6.18;;;3.20;;
59907;SDS011;61804;54.926;73.496;2023-12-04T09:18:25;5.45;;;4.18;;
59907;SDS011;61804;54.926;73.496;2023-12-04T09:20:53;9.90;;;4.68;;
59907;SDS011;61804;54.926;73.496;2023-12-04T09:23:20;12.10;;;5.53;;
59907;SDS011;61804;54.926;73.496;2023-12-04T09:25:47;4.85;;;4.40;;
59907;SDS011;61804;54.926;73.496;2023-12-04T09:28:15;9.50;;;5.20;;
59907;SDS011;61804;54.926;73.496;2023-12-04T09:30:43;10.27;;;5.38;;
59907;SDS011;61804;54.926;73.496;2023-12-04T09:33:10;13.30;;;8.15;;
59907;SDS011;61804;54.926;73.496;2023-12-04T09:35:37;8.50;;;5.88;;
59907;SDS011;61804;54.926;73.496;2023-12-04T09:38:05;12.45;;;6.20;;
59907;SDS011;61804;54.926;73.496;2023-12-04T09:40:32;5.78;;;4.70;;
59907;SDS011;61804;54.926;73.496;2023-12-04T09:42:59;6.55;;;4.82;;
59907;SDS011;61804;54.926;73.496;2023-12-04T09:45:27;13.93;;;6.00;;
59907;SDS011;61804;54.926;73.496;2023-12-04T09:47:56;14.25;;;5.35;;
59907;SDS011;61804;54.926;73.496;2023-12-04T09:50:24;8.35;;;4.93;;
59907;SDS011;61804;54.926;73.496;2023-12-04T09:52:51;14.85;;;6.18;;
59907;SDS011;61804;54.926;73.496;2023-12-04T09:55:22;8.10;;;5.40;;
59907;SDS011;61804;54.926;73.496;2023-12-04T09:57:52;9.88;;;6.10;;
59907;SDS011;61804;54.926;73.496;2023-12-04T10:00:21;24.20;;;13.73;;
59907;SDS011;61804;54.926;73.496;2023-12-04T10:02:48;13.90;;;6.78;;
59907;SDS011;61804;54.926;73.496;2023-12-04T10:05:16;13.65;;;7.65;;
59907;SDS011;61804;54.926;73.496;2023-12-04T10:07:43;14.10;;;7.07;;
59907;SDS011;61804;54.926;73.496;2023-12-04T10:10:10;8.63;;;4.53;;
59907;SDS011;61804;54.926;73.496;2023-12-04T10:12:38;12.32;;;6.50;;
59907;SDS011;61804;54.926;73.496;2023-12-04T10:15:09;11.52;;;8.55;;
59907;SDS011;61804;54.926;73.496;2023-12-04T10:17:37;13.80;;;5.38;;
59907;SDS011;61804;54.926;73.496;2023-12-04T10:20:06;13.88;;;6.00;;
59907;SDS011;61804;54.926;73.496;2023-12-04T10:22:56;21.27;;;8.88;;
59907;SDS011;61804;54.926;73.496;2023-12-04T10:25:25;21.58;;;8.52;;
59907;SDS011;61804;54.926;73.496;2023-12-04T10:28:09;18.17;;;10.55;;
59907;SDS011;61804;54.926;73.496;2023-12-04T10:30:37;7.72;;;5.22;;
59907;SDS011;61804;54.926;73.496;2023-12-04T10:33:05;14.70;;;9.38;;
59907;SDS011;61804;54.926;73.496;2023-12-04T10:35:36;19.48;;;13.70;;
59907;SDS011;61804;54.926;73.496;2023-12-04T10:38:05;7.30;;;4.60;;
59907;SDS011;61804;54.926;73.496;2023-12-04T10:40:33;18.65;;;9.70;;
59907;SDS011;61804;54.926;73.496;2023-12-04T10:45:48;15.32;;;9.02;;
59907;SDS011;61804;54.926;73.496;2023-12-04T10:48:16;4.57;;;3.10;;
59907;SDS011;61804;54.926;73.496;2023-12-04T10:50:44;5.25;;;2.53;;
59907;SDS011;61804;54.926;73.496;2023-12-04T10:53:14;6.88;;;2.28;;
59907;SDS011;61804;54.926;73.496;2023-12-04T10:55:42;8.68;;;4.47;;
59907;SDS011;61804;54.926;73.496;2023-12-04T10:58:12;3.67;;;2.97;;
59907;SDS011;61804;54.926;73.496;2023-12-04T11:00:44;11.35;;;5.85;;
59907;SDS011;61804;54.926;73.496;2023-12-04T11:03:23;9.10;;;6.47;;
59907;SDS011;61804;54.926;73.496;2023-12-04T11:05:56;28.73;;;14.88;;
59907;SDS011;61804;54.926;73.496;2023-12-04T11:08:23;14.57;;;8.88;;
59907;SDS011;61804;54.926;73.496;2023-12-04T11:10:56;18.48;;;6.78;;
59907;SDS011;61804;54.926;73.496;2023-12-04T11:13:27;10.48;;;5.90;;
59907;SDS011;61804;54.926;73.496;2023-12-04T11:18:43;18.75;;;8.07;;
59907;SDS011;61804;54.926;73.496;2023-12-04T11:21:11;29.27;;;10.45;;
59907;SDS011;61804;54.926;73.496;2023-12-04T11:23:38;21.35;;;10.00;;
59907;SDS011;61804;54.926;73.496;2023-12-04T11:26:07;21.92;;;10.75;;
59907;SDS011;61804;54.926;73.496;2023-12-04T11:28:36;29.23;;;16.92;;
59907;SDS011;61804;54.926;73.496;2023-12-04T11:31:05;16.33;;;11.43;;
59907;SDS011;61804;54.926;73.496;2023-12-04T11:33:36;27.95;;;16.50;;
59907;SDS011;61804;54.926;73.496;2023-12-04T11:36:13;24.98;;;13.82;;
59907;SDS011;61804;54.926;73.496;2023-12-04T11:38:45;21.83;;;13.23;;
59907;SDS011;61804;54.926;73.496;2023-12-04T11:41:21;16.58;;;9.05;;
59907;SDS011;61804;54.926;73.496;2023-12-04T11:43:50;14.80;;;7.70;;
59907;SDS011;61804;54.926;73.496;2023-12-04T11:46:21;20.88;;;12.90;;
59907;SDS011;61804;54.926;73.496;2023-12-04T11:48:50;13.35;;;7.68;;
59907;SDS011;61804;54.926;73.496;2023-12-04T11:54:19;17.70;;;11.43;;
59907;SDS011;61804;54.926;73.496;2023-12-04T11:56:59;12.20;;;8.93;;
59907;SDS011;61804;54.926;73.496;2023-12-04T11:59:28;25.63;;;13.68;;
59907;SDS011;61804;54.926;73.496;2023-12-04T12:01:56;14.05;;;9.07;;
59907;SDS011;61804;54.926;73.496;2023-12-04T12:04:25;28.17;;;19.65;;
59907;SDS011;61804;54.926;73.496;2023-12-04T12:06:52;50.88;;;30.33;;
59907;SDS011;61804;54.926;73.496;2023-12-04T12:09:19;71.35;;;31.40;;
59907;SDS011;61804;54.926;73.496;2023-12-04T12:11:47;65.15;;;26.80;;
59907;SDS011;61804;54.926;73.496;2023-12-04T12:14:26;50.95;;;26.80;;
59907;SDS011;61804;54.926;73.496;2023-12-04T12:17:13;24.88;;;15.00;;
59907;SDS011;61804;54.926;73.496;2023-12-04T12:19:40;24.05;;;10.95;;
59907;SDS011;61804;54.926;73.496;2023-12-04T12:22:23;23.55;;;11.73;;
59907;SDS011;61804;54.926;73.496;2023-12-04T12:25:04;25.40;;;13.07;;
59907;SDS011;61804;54.926;73.496;2023-12-04T12:27:31;31.90;;;22.13;;
59907;SDS011;61804;54.926;73.496;2023-12-04T12:29:59;63.33;;;24.08;;
59907;SDS011;61804;54.926;73.496;2023-12-04T12:32:38;44.08;;;23.15;;
59907;SDS011;61804;54.926;73.496;2023-12-04T12:35:15;50.50;;;22.58;;
59907;SDS011;61804;54.926;73.496;2023-12-04T12:38:02;63.38;;;33.35;;
59907;SDS011;61804;54.926;73.496;2023-12-04T12:40:30;58.92;;;28.10;;
59907;SDS011;61804;54.926;73.496;2023-12-04T12:43:04;35.15;;;23.23;;
59907;SDS011;61804;54.926;73.496;2023-12-04T12:45:41;52.65;;;31.92;;
59907;SDS011;61804;54.926;73.496;2023-12-04T12:48:20;43.88;;;22.80;;
59907;SDS011;61804;54.926;73.496;2023-12-04T12:50:48;43.95;;;23.80;;
59907;SDS011;61804;54.926;73.496;2023-12-04T12:53:15;83.45;;;39.03;;
59907;SDS011;61804;54.926;73.496;2023-12-04T12:55:45;52.03;;;28.00;;
59907;SDS011;61804;54.926;73.496;2023-12-04T12:58:14;45.53;;;30.58;;
59907;SDS011;61804;54.926;73.496;2023-12-04T13:00:47;50.83;;;26.77;;
59907;SDS011;61804;54.926;73.496;2023-12-04T13:03:14;57.25;;;32.47;;
59907;SDS011;61804;54.926;73.496;2023-12-04T13:05:50;61.65;;;33.85;;
59907;SDS011;61804;54.926;73.496;2023-12-04T13:08:17;100.90;;;47.35;;
59907;SDS011;61804;54.926;73.496;2023-12-04T13:10:55;28.90;;;19.33;;
59907;SDS011;61804;54.926;73.496;2023-12-04T13:13:22;36.63;;;20.67;;
59907;SDS011;61804;54.926;73.496;2023-12-04T13:15:50;34.58;;;16.40;;
59907;SDS011;61804;54.926;73.496;2023-12-04T13:18:17;24.98;;;15.75;;
59907;SDS011;61804;54.926;73.496;2023-12-04T13:20:45;23.33;;;12.48;;
59907;SDS011;61804;54.926;73.496;2023-12-04T13:23:13;25.33;;;13.10;;
59907;SDS011;61804;54.926;73.496;2023-12-04T13:25:41;22.10;;;15.18;;
59907;SDS011;61804;54.926;73.496;2023-12-04T13:28:16;23.25;;;12.68;;
59907;SDS011;61804;54.926;73.496;2023-12-04T13:30:59;65.35;;;33.28;;
59907;SDS011;61804;54.926;73.496;2023-12-04T13:33:26;77.20;;;35.90;;
59907;SDS011;61804;54.926;73.496;2023-12-04T13:35:54;63.92;;;23.77;;
59907;SDS011;61804;54.926;73.496;2023-12-04T13:38:22;37.25;;;20.08;;
59907;SDS011;61804;54.926;73.496;2023-12-04T13:40:49;24.73;;;12.55;;
59907;SDS011;61804;54.926;73.496;2023-12-04T13:43:26;25.67;;;14.35;;
59907;SDS011;61804;54.926;73.496;2023-12-04T13:46:12;30.65;;;16.92;;
59907;SDS011;61804;54.926;73.496;2023-12-04T13:48:40;63.47;;;30.13;;
59907;SDS011;61804;54.926;73.496;2023-12-04T13:51:12;42.35;;;19.75;;
59907;SDS011;61804;54.926;73.496;2023-12-04T13:53:40;42.42;;;18.73;;
59907;SDS011;61804;54.926;73.496;2023-12-04T13:56:11;46.75;;;21.52;;
59907;SDS011;61804;54.926;73.496;2023-12-04T13:58:39;89.70;;;46.53;;
59907;SDS011;61804;54.926;73.496;2023-12-04T14:01:11;41.95;;;22.13;;
59907;SDS011;61804;54.926;73.496;2023-12-04T14:03:44;42.80;;;20.10;;
59907;SDS011;61804;54.926;73.496;2023-12-04T14:06:11;37.58;;;20.35;;
59907;SDS011;61804;54.926;73.496;2023-12-04T14:08:39;54.45;;;28.73;;
59907;SDS011;61804;54.926;73.496;2023-12-04T14:11:06;28.08;;;17.08;;
59907;SDS011;61804;54.926;73.496;2023-12-04T14:13:34;27.40;;;15.68;;
59907;SDS011;61804;54.926;73.496;2023-12-04T14:16:02;29.83;;;16.85;;
59907;SDS011;61804;54.926;73.496;2023-12-04T14:18:30;16.70;;;10.32;;
59907;SDS011;61804;54.926;73.496;2023-12-04T14:20:58;12.73;;;5.53;;
59907;SDS011;61804;54.926;73.496;2023-12-04T14:23:25;9.57;;;5.82;;
59907;SDS011;61804;54.926;73.496;2023-12-04T14:25:53;11.73;;;7.78;;
59907;SDS011;61804;54.926;73.496;2023-12-04T14:28:20;9.38;;;4.88;;
59907;SDS011;61804;54.926;73.496;2023-12-04T14:30:48;9.35;;;6.45;;
59907;SDS011;61804;54.926;73.496;2023-12-04T14:33:15;17.40;;;12.68;;
59907;SDS011;61804;54.926;73.496;2023-12-04T14:35:43;8.80;;;6.22;;
59907;SDS011;61804;54.926;73.496;2023-12-04T14:38:10;19.95;;;7.22;;
59907;SDS011;61804;54.926;73.496;2023-12-04T14:40:38;17.00;;;7.57;;
59907;SDS011;61804;54.926;73.496;2023-12-04T14:43:05;23.58;;;12.68;;
59907;SDS011;61804;54.926;73.496;2023-12-04T14:45:36;18.80;;;9.20;;